Time;durP1;ratioP1;P1;durP2;ratioP2;P2;SDS_P1;SDS_P2;PMS_P1;PMS_P2;Temp;Humidity;BMP_temperature;BMP_pressure;BME280_temperature;BME280_humidity;BME280_pressure;Samples;Min_cycle;Max_cycle;Signal;HPM_P1;HPM_P2
2024/04/07 00:04:28;;;;;;;4.00;3.23;;;16.90;28.00;;;;;;10423435;28;20267;-71
2024/04/07 00:09:33;;;;;;;3.60;3.30;;;16.90;27.80;;;;;;10421533;28;20248;-71
2024/04/07 00:14:36;;;;;;;3.80;3.50;;;17.00;28.20;;;;;;10423304;28;20260;-71
2024/04/07 00:19:40;;;;;;;3.53;3.23;;;17.00;27.90;;;;;;10422508;28;20303;-72
2024/04/07 00:24:45;;;;;;;3.77;3.47;;;17.00;27.90;;;;;;10422887;28;20236;-72
2024/04/07 00:29:47;;;;;;;3.27;3.07;;;16.90;28.10;;;;;;10421833;28;20295;-72
2024/04/07 00:34:49;;;;;;;4.03;3.20;;;16.80;28.00;;;;;;10418006;28;20245;-71
2024/04/07 00:39:53;;;;;;;2.90;2.70;;;16.80;28.00;;;;;;10420647;28;20271;-71
2024/04/07 00:44:55;;;;;;;4.47;3.40;;;16.70;28.50;;;;;;10433659;28;20256;-71
2024/04/07 00:49:58;;;;;;;3.83;3.53;;;16.70;28.20;;;;;;10439396;28;20706;-72
2024/04/07 00:55:04;;;;;;;4.13;3.83;;;16.70;28.40;;;;;;10422772;28;20262;-71
2024/04/07 01:00:09;;;;;;;4.20;3.80;;;16.60;28.80;;;;;;10429062;28;20257;-71
2024/04/07 01:05:11;;;;;;;4.80;3.60;;;16.40;28.40;;;;;;10430723;28;20244;-72
2024/04/07 01:10:16;;;;;;;5.90;3.57;;;16.20;28.30;;;;;;10427884;28;22108;-71
2024/04/07 01:15:18;;;;;;;3.53;3.20;;;16.10;29.00;;;;;;10426815;28;20733;-71
2024/04/07 01:20:20;;;;;;;4.43;3.40;;;15.90;28.60;;;;;;10432869;28;20252;-71
2024/04/07 01:25:24;;;;;;;4.80;3.20;;;15.80;28.80;;;;;;10434199;28;20249;-72
2024/04/07 01:30:27;;;;;;;4.47;3.10;;;15.70;29.30;;;;;;10425134;28;20816;-71
2024/04/07 01:35:29;;;;;;;3.60;3.30;;;15.60;29.10;;;;;;10427381;28;20266;-72
2024/04/07 01:40:33;;;;;;;3.00;2.80;;;15.50;29.30;;;;;;10425737;28;20303;-72
2024/04/07 01:45:35;;;;;;;2.90;2.70;;;15.40;29.80;;;;;;10418192;28;20292;-71
2024/04/07 01:50:38;;;;;;;2.63;2.43;;;15.50;29.30;;;;;;10426373;28;20252;-71
2024/04/07 01:55:42;;;;;;;3.20;2.90;;;15.60;29.30;;;;;;10425177;28;20241;-71
2024/04/07 02:00:44;;;;;;;2.93;2.70;;;15.70;29.60;;;;;;10428070;28;20233;-71
2024/04/07 02:05:46;;;;;;;3.30;3.00;;;15.70;29.30;;;;;;10427490;28;20702;-71
2024/04/07 02:10:52;;;;;;;3.17;2.97;;;15.80;29.30;;;;;;10427555;28;20253;-71
2024/04/07 02:15:55;;;;;;;3.30;3.00;;;15.80;30.10;;;;;;10420703;28;20237;-71
2024/04/07 02:20:57;;;;;;;4.33;2.60;;;15.80;29.20;;;;;;10424748;28;20291;-71
2024/04/07 02:26:01;;;;;;;2.90;2.70;;;15.80;29.00;;;;;;10431527;28;20751;-71
2024/04/07 02:31:03;;;;;;;3.30;3.00;;;15.80;29.50;;;;;;10431144;28;20774;-71
2024/04/07 02:36:07;;;;;;;3.53;3.23;;;15.80;29.10;;;;;;10426259;28;20326;-72
2024/04/07 02:41:11;;;;;;;3.60;3.23;;;15.80;29.10;;;;;;10439225;28;20247;-72
2024/04/07 02:51:33;;;;;;;3.23;2.73;;;15.40;29.20;;;;;;10429613;28;20257;-71
2024/04/07 02:56:36;;;;;;;3.30;3.00;;;15.30;29.40;;;;;;10428083;28;20253;-72
2024/04/07 03:01:38;;;;;;;4.30;3.10;;;15.20;29.60;;;;;;10424938;28;20244;-71
2024/04/07 03:06:40;;;;;;;2.70;2.50;;;15.10;29.60;;;;;;10428580;28;20255;-71
2024/04/07 03:11:44;;;;;;;2.63;2.43;;;15.10;29.50;;;;;;10427537;28;20253;-71
2024/04/07 03:16:47;;;;;;;3.90;3.03;;;15.00;29.80;;;;;;10427932;28;20256;-71
2024/04/07 03:21:49;;;;;;;3.30;3.00;;;15.00;29.60;;;;;;10422360;28;21003;-71
2024/04/07 03:26:55;;;;;;;3.00;2.80;;;15.00;29.50;;;;;;10424426;28;20708;-71
2024/04/07 03:31:57;;;;;;;3.40;3.10;;;14.90;30.00;;;;;;10438737;28;20240;-72
2024/04/07 03:36:59;;;;;;;4.00;3.07;;;14.70;29.80;;;;;;10428346;28;20244;-71
2024/04/07 03:42:03;;;;;;;3.63;2.50;;;14.60;29.90;;;;;;10424937;28;20240;-71
2024/04/07 03:47:06;;;;;;;3.70;2.90;;;14.50;30.30;;;;;;10425047;28;20914;-71
2024/04/07 03:52:08;;;;;;;2.70;2.50;;;14.40;30.10;;;;;;10437082;28;20252;-71
2024/04/07 03:57:13;;;;;;;3.10;2.90;;;14.40;30.10;;;;;;10419401;28;20248;-71
2024/04/07 04:02:21;;;;;;;2.77;2.57;;;14.40;30.90;;;;;;10422286;28;20264;-71
2024/04/07 04:07:26;;;;;;;3.43;2.87;;;14.40;31.60;;;;;;10419450;28;20299;-71
2024/04/07 04:12:30;;;;;;;3.67;2.80;;;14.50;30.60;;;;;;10425339;28;20256;-71
2024/04/07 04:17:33;;;;;;;3.00;2.70;;;14.50;31.10;;;;;;10417560;28;20252;-71
2024/04/07 04:22:35;;;;;;;4.00;2.70;;;14.60;30.40;;;;;;10424939;28;20252;-71
2024/04/07 04:27:40;;;;;;;2.93;2.73;;;14.60;30.40;;;;;;10442244;28;20255;-71
2024/04/07 04:32:42;;;;;;;3.03;2.73;;;14.60;30.90;;;;;;10426383;28;20299;-71
2024/04/07 04:37:44;;;;;;;3.97;2.73;;;14.60;30.30;;;;;;10433070;28;20263;-71
2024/04/07 04:42:48;;;;;;;3.13;2.73;;;14.50;30.60;;;;;;10430815;28;20302;-71
2024/04/07 04:47:50;;;;;;;3.30;3.03;;;14.30;31.00;;;;;;10434153;28;20240;-72
2024/04/07 04:52:52;;;;;;;3.50;3.20;;;14.30;30.80;;;;;;10430723;28;20707;-72
2024/04/07 04:57:55;;;;;;;3.47;3.10;;;14.30;31.10;;;;;;10430154;28;20333;-72
2024/04/07 05:02:58;;;;;;;3.47;3.17;;;14.20;31.40;;;;;;10433228;28;20254;-71
2024/04/07 05:08:00;;;;;;;3.60;3.30;;;14.10;31.30;;;;;;10436469;28;20256;-71
2024/04/07 05:13:03;;;;;;;3.77;3.07;;;14.10;31.30;;;;;;10430618;28;20217;-71
2024/04/07 05:18:06;;;;;;;3.20;3.00;;;14.00;31.60;;;;;;10429592;28;21159;-71
2024/04/07 05:23:08;;;;;;;3.67;3.10;;;14.00;31.30;;;;;;10428701;28;20261;-71
2024/04/07 05:28:12;;;;;;;4.13;3.73;;;14.00;31.20;;;;;;10429951;28;20949;-71
2024/04/07 05:33:14;;;;;;;3.83;3.43;;;14.00;32.10;;;;;;10432063;28;20249;-71
2024/04/07 05:38:16;;;;;;;3.47;3.27;;;14.10;31.40;;;;;;10437599;28;20777;-71
2024/04/07 05:43:20;;;;;;;3.47;3.07;;;14.00;31.80;;;;;;10430706;28;20943;-71
2024/04/07 05:48:22;;;;;;;3.50;3.20;;;13.90;32.40;;;;;;10434584;28;20275;-71
2024/04/07 05:53:24;;;;;;;3.20;3.00;;;13.90;32.30;;;;;;10450505;28;21094;-71
2024/04/07 05:58:28;;;;;;;4.33;3.27;;;14.10;32.50;;;;;;10444557;28;20300;-71
2024/04/07 06:03:30;;;;;;;3.90;3.60;;;14.20;33.20;;;;;;10433705;28;20245;-71
2024/04/07 06:08:32;;;;;;;5.10;4.03;;;14.30;32.70;;;;;;10425945;28;20276;-71
2024/04/07 06:13:36;;;;;;;3.60;3.30;;;14.40;32.60;;;;;;10433149;28;20260;-71
2024/04/07 06:18:38;;;;;;;4.00;3.70;;;14.50;33.20;;;;;;10420838;28;20245;-71
2024/04/07 06:23:42;;;;;;;3.70;3.40;;;14.60;33.40;;;;;;10409068;28;20295;-71
2024/04/07 06:28:45;;;;;;;4.93;3.27;;;14.70;33.30;;;;;;10420354;28;20900;-71
2024/04/07 06:33:48;;;;;;;3.90;3.60;;;14.90;33.80;;;;;;10419616;28;21008;-71
2024/04/07 06:38:51;;;;;;;4.40;3.93;;;15.00;33.20;;;;;;10418533;28;20245;-71
2024/04/07 06:43:55;;;;;;;3.57;3.27;;;15.10;33.60;;;;;;10412603;28;20820;-71
2024/04/07 06:48:58;;;;;;;3.87;3.47;;;15.30;34.20;;;;;;10412838;28;20311;-71
2024/04/07 06:54:00;;;;;;;3.50;3.30;;;15.40;33.70;;;;;;10424439;28;20265;-71
2024/04/07 06:59:04;;;;;;;5.47;4.53;;;15.50;34.00;;;;;;10416137;28;20297;-71
2024/04/07 07:04:06;;;;;;;3.93;3.63;;;15.70;35.10;;;;;;10414210;28;20251;-70
2024/04/07 07:09:08;;;;;;;3.90;3.60;;;15.90;35.40;;;;;;10410655;28;20359;-71
2024/04/07 07:14:12;;;;;;;3.80;3.50;;;16.10;34.80;;;;;;10412068;28;20264;-71
2024/04/07 07:19:14;;;;;;;3.90;3.60;;;16.30;34.90;;;;;;10407821;28;20756;-71
2024/04/07 07:24:17;;;;;;;4.10;3.63;;;16.50;34.60;;;;;;10408370;28;20252;-71
2024/04/07 07:29:20;;;;;;;4.07;3.17;;;16.70;34.80;;;;;;10412118;28;20316;-71
2024/04/07 07:34:22;;;;;;;2.90;2.70;;;16.80;34.20;;;;;;10422497;28;20294;-71
2024/04/07 07:39:25;;;;;;;2.93;2.73;;;17.00;33.90;;;;;;10436777;28;20244;-71
2024/04/07 07:44:28;;;;;;;3.10;2.90;;;17.20;34.00;;;;;;10441153;28;20253;-71
2024/04/07 07:49:31;;;;;;;3.27;3.00;;;17.40;34.20;;;;;;10424908;28;20248;-71
2024/04/07 07:54:33;;;;;;;3.00;2.80;;;17.50;33.70;;;;;;10426649;28;20703;-72
2024/04/07 07:59:37;;;;;;;2.87;2.57;;;17.70;33.40;;;;;;10426678;28;20249;-72
2024/04/07 08:04:40;;;;;;;2.70;2.50;;;17.90;33.60;;;;;;10424644;28;20255;-71
2024/04/07 08:09:42;;;;;;;2.67;2.47;;;18.10;33.20;;;;;;10430896;28;20263;-72
2024/04/07 08:14:46;;;;;;;3.17;2.20;;;18.40;33.40;;;;;;10402563;28;20315;-72
2024/04/07 08:19:48;;;;;;;3.27;2.33;;;18.60;33.60;;;;;;10401985;28;20790;-73
2024/04/07 08:24:50;;;;;;;2.40;2.20;;;18.90;32.80;;;;;;10402096;28;20534;-73
2024/04/07 08:29:54;;;;;;;2.60;2.40;;;19.20;32.80;;;;;;10429082;28;20294;-73
2024/04/07 08:34:56;;;;;;;2.50;2.30;;;19.50;32.10;;;;;;10406897;28;20241;-76
2024/04/07 08:39:58;;;;;;;2.67;2.47;;;19.80;32.40;;;;;;10419101;28;20252;-73
2024/04/07 08:45:04;;;;;;;2.30;2.10;;;20.10;31.60;;;;;;10429478;28;20769;-75
2024/04/07 08:50:09;;;;;;;2.40;2.00;;;20.40;31.10;;;;;;10417896;28;20700;-72
2024/04/07 08:55:11;;;;;;;4.27;1.63;;;20.70;31.20;;;;;;10413856;28;20338;-74
2024/04/07 09:00:17;;;;;;;2.30;1.60;;;21.00;31.40;;;;;;10407560;28;20320;-73
2024/04/07 09:05:19;;;;;;;2.07;1.90;;;21.40;30.40;;;;;;10407398;28;20265;-73
2024/04/07 09:10:21;;;;;;;2.10;1.77;;;21.70;30.30;;;;;;10408304;28;21399;-73
2024/04/07 09:15:25;;;;;;;1.60;1.50;;;22.10;30.50;;;;;;10419143;28;20253;-73
2024/04/07 09:20:27;;;;;;;2.60;1.80;;;22.40;29.90;;;;;;10424863;28;20865;-73
2024/04/07 09:25:29;;;;;;;3.13;1.73;;;22.80;30.70;;;;;;10422078;28;20727;-74
2024/04/07 09:30:33;;;;;;;2.13;1.70;;;23.10;29.80;;;;;;10425192;28;20236;-74
2024/04/07 09:35:35;;;;;;;2.43;1.77;;;23.40;29.00;;;;;;10429206;28;22403;-74
2024/04/07 09:40:39;;;;;;;3.37;1.70;;;23.70;29.30;;;;;;10428814;28;20727;-74
2024/04/07 09:45:49;;;;;;;1.80;1.60;;;24.00;29.00;;;;;;10425187;28;20310;-74
2024/04/07 09:50:58;;;;;;;2.73;1.60;;;24.30;28.20;;;;;;10425352;28;20711;-74
2024/04/07 09:56:00;;;;;;;2.83;1.50;;;24.50;28.00;;;;;;10424176;28;20252;-73
2024/04/07 10:01:04;;;;;;;3.23;1.33;;;24.90;27.40;;;;;;10426842;28;20241;-73
2024/04/07 10:06:06;;;;;;;3.67;1.70;;;25.10;25.80;;;;;;10425294;28;20244;-73
2024/04/07 10:11:16;;;;;;;8.53;2.00;;;25.40;25.60;;;;;;10422895;28;20245;-73
2024/04/07 10:16:19;;;;;;;2.60;1.27;;;25.60;23.20;;;;;;10416298;28;20266;-74
2024/04/07 10:21:22;;;;;;;2.97;1.50;;;25.70;24.70;;;;;;10418654;28;20241;-74
2024/04/07 10:26:24;;;;;;;2.73;1.90;;;26.00;25.00;;;;;;10421355;28;20283;-74
2024/04/07 10:31:31;;;;;;;3.17;1.60;;;26.20;25.10;;;;;;10438280;28;20300;-74
2024/04/07 10:36:34;;;;;;;4.33;3.80;;;26.40;23.30;;;;;;10424473;28;20271;-74
2024/04/07 10:41:37;;;;;;;3.60;2.27;;;26.50;24.40;;;;;;10422149;28;20255;-74
2024/04/07 10:46:41;;;;;;;3.80;2.43;;;26.70;23.40;;;;;;10425628;28;20244;-74
2024/04/07 10:51:47;;;;;;;3.70;1.63;;;26.80;23.10;;;;;;10420709;28;20715;-74
2024/04/07 10:56:52;;;;;;;4.27;1.60;;;27.00;23.00;;;;;;10432833;28;20303;-75
2024/04/07 11:01:55;;;;;;;5.47;1.73;;;27.20;23.50;;;;;;10422511;28;20634;-74
2024/04/07 11:06:59;;;;;;;6.37;1.67;;;27.30;22.30;;;;;;10419961;28;20253;-74
2024/04/07 11:12:02;;;;;;;7.07;1.57;;;27.50;22.60;;;;;;10434035;28;20275;-74
2024/04/07 11:17:07;;;;;;;3.43;1.57;;;27.60;22.50;;;;;;10423131;28;20257;-73
2024/04/07 11:22:09;;;;;;;4.17;1.80;;;27.70;21.20;;;;;;10421388;28;20794;-74
2024/04/07 11:27:12;;;;;;;4.40;1.80;;;27.80;21.70;;;;;;10419713;28;20307;-74
2024/04/07 11:32:15;;;;;;;7.33;1.80;;;27.80;21.30;;;;;;10435948;28;20312;-74
2024/04/07 11:37:17;;;;;;;3.63;1.50;;;27.80;20.90;;;;;;10418301;28;20307;-74
2024/04/07 11:42:21;;;;;;;4.37;1.80;;;27.80;21.60;;;;;;10432878;28;20253;-74
2024/04/07 11:47:25;;;;;;;3.33;1.47;;;27.80;21.00;;;;;;10438611;28;20746;-74
2024/04/07 11:52:28;;;;;;;4.20;1.63;;;27.90;20.70;;;;;;10415182;28;20310;-74
2024/04/07 11:57:32;;;;;;;4.20;1.87;;;27.90;21.20;;;;;;10437050;28;20256;-74
2024/04/07 12:02:35;;;;;;;2.73;1.60;;;28.00;20.50;;;;;;10420033;28;20290;-74
2024/04/07 12:07:37;;;;;;;3.23;1.70;;;28.00;20.50;;;;;;10420492;28;20244;-74
2024/04/07 12:12:40;;;;;;;2.57;1.60;;;28.00;20.70;;;;;;10430298;28;20316;-74
2024/04/07 12:17:43;;;;;;;3.47;1.63;;;28.10;20.40;;;;;;10419176;28;20253;-74
2024/04/07 12:22:45;;;;;;;3.73;1.70;;;28.20;20.20;;;;;;10414461;28;20260;-74
2024/04/07 12:27:48;;;;;;;3.60;1.77;;;28.20;20.20;;;;;;10420715;28;20244;-74
2024/04/07 12:32:51;;;;;;;2.33;1.40;;;28.10;20.70;;;;;;10423047;28;20260;-74
2024/04/07 12:37:54;;;;;;;3.20;1.80;;;28.10;20.10;;;;;;10423914;28;20677;-74
2024/04/07 12:42:56;;;;;;;4.40;1.80;;;28.10;20.10;;;;;;10415332;28;20259;-74
2024/04/07 12:47:59;;;;;;;6.73;1.67;;;28.10;20.10;;;;;;10418269;28;20282;-74
2024/04/07 12:53:02;;;;;;;5.83;1.70;;;28.10;19.90;;;;;;10422583;28;20254;-73
2024/04/07 12:58:04;;;;;;;5.70;1.67;;;28.10;20.10;;;;;;10441136;28;20303;-73
2024/04/07 13:03:08;;;;;;;4.73;2.00;;;28.20;20.20;;;;;;10422646;28;20283;-74
2024/04/07 13:08:11;;;;;;;4.77;1.60;;;28.20;19.90;;;;;;10438278;28;20249;-74
2024/04/07 13:13:13;;;;;;;4.43;1.70;;;28.30;20.20;;;;;;10425075;28;20302;-74
2024/04/07 13:18:17;;;;;;;4.13;1.90;;;28.30;20.20;;;;;;10424416;28;20257;-74
2024/04/07 13:23:19;;;;;;;5.13;1.73;;;28.40;19.20;;;;;;10422992;28;20762;-74
2024/04/07 13:28:21;;;;;;;4.53;1.77;;;28.50;19.60;;;;;;10425181;28;20261;-74
2024/04/07 13:33:25;;;;;;;5.37;2.00;;;28.50;20.20;;;;;;10422256;28;20326;-74
2024/04/07 13:38:27;;;;;;;4.93;1.87;;;28.60;20.10;;;;;;10425064;28;20243;-74
2024/04/07 13:43:30;;;;;;;5.90;1.70;;;28.60;19.20;;;;;;10422590;28;21153;-74
2024/04/07 13:48:33;;;;;;;6.00;1.90;;;28.60;19.10;;;;;;10429240;28;20249;-74
2024/04/07 13:53:36;;;;;;;4.57;1.90;;;28.60;18.50;;;;;;10423701;28;20688;-74
2024/04/07 13:58:38;;;;;;;3.50;1.77;;;28.60;19.30;;;;;;10421056;28;20662;-75
2024/04/07 14:03:42;;;;;;;3.93;2.03;;;28.60;18.90;;;;;;10419527;28;20249;-74
2024/04/07 14:08:44;;;;;;;5.80;1.97;;;28.70;18.40;;;;;;10424828;28;20257;-75
2024/04/07 14:13:46;;;;;;;3.60;1.80;;;28.80;18.90;;;;;;10429000;28;20245;-75
2024/04/07 14:18:50;;;;;;;4.73;2.30;;;28.90;18.80;;;;;;10407654;28;21016;-72
2024/04/07 14:23:52;;;;;;;5.73;2.10;;;29.00;18.20;;;;;;10413226;28;20320;-72
2024/04/07 14:28:54;;;;;;;9.23;2.43;;;29.00;18.50;;;;;;10413172;28;20412;-75
2024/04/07 14:33:58;;;;;;;3.33;1.80;;;29.10;18.60;;;;;;10405755;28;20657;-75
2024/04/07 14:39:00;;;;;;;5.27;1.80;;;29.10;18.30;;;;;;10404097;28;20309;-75
2024/04/07 14:44:03;;;;;;;9.20;2.10;;;29.10;18.50;;;;;;10396956;28;20332;-74
2024/04/07 14:49:13;;;;;;;3.90;2.03;;;29.10;18.30;;;;;;10407084;28;20345;-75
2024/04/07 14:54:16;;;;;;;6.63;2.17;;;29.20;17.80;;;;;;10403626;28;20295;-74
2024/04/07 14:59:18;;;;;;;9.20;3.93;;;29.20;17.80;;;;;;10403970;28;20786;-74
2024/04/07 15:04:22;;;;;;;6.37;2.60;;;29.20;17.90;;;;;;10407442;28;20320;-73
2024/04/07 15:09:26;;;;;;;7.50;2.27;;;29.20;17.30;;;;;;10414867;28;20305;-73
2024/04/07 15:14:28;;;;;;;8.67;2.40;;;29.20;17.40;;;;;;10415759;28;20374;-73
2024/04/07 15:19:32;;;;;;;9.53;2.10;;;29.30;17.70;;;;;;10419379;28;20734;-73
2024/04/07 15:24:34;;;;;;;13.30;9.03;;;29.20;16.80;;;;;;10415057;28;20260;-73
2024/04/07 15:29:38;;;;;;;19.77;16.03;;;29.10;17.30;;;;;;10414880;28;20308;-73
2024/04/07 15:34:42;;;;;;;8.83;5.63;;;29.00;17.00;;;;;;10403236;28;20319;-73
2024/04/07 15:39:44;;;;;;;7.37;3.40;;;29.00;17.10;;;;;;10408767;28;20300;-74
2024/04/07 15:44:46;;;;;;;7.87;2.80;;;28.90;17.40;;;;;;10405542;28;20352;-73
2024/04/07 15:49:50;;;;;;;5.50;2.47;;;29.00;17.70;;;;;;10403925;28;20344;-73
2024/04/07 15:54:52;;;;;;;9.40;3.00;;;28.90;17.20;;;;;;10428070;28;20675;-73
2024/04/07 15:59:55;;;;;;;6.33;2.33;;;28.90;17.60;;;;;;10416514;28;20310;-76
2024/04/07 16:04:59;;;;;;;7.53;2.07;;;28.80;17.50;;;;;;10426520;28;20834;-73
2024/04/07 16:10:02;;;;;;;7.07;2.40;;;28.70;17.10;;;;;;10412622;28;20324;-73
2024/04/07 16:15:05;;;;;;;4.33;2.07;;;28.70;17.50;;;;;;10409180;28;20319;-73
2024/04/07 16:20:10;;;;;;;6.60;2.30;;;28.60;17.40;;;;;;10404366;28;20256;-73
2024/04/07 16:25:12;;;;;;;6.50;2.20;;;28.60;17.30;;;;;;10407120;28;20264;-73
2024/04/07 16:30:15;;;;;;;5.10;2.00;;;28.60;17.80;;;;;;10418459;28;20315;-74
2024/04/07 16:35:18;;;;;;;6.67;2.30;;;28.50;17.20;;;;;;10416230;28;20762;-72
2024/04/07 16:40:20;;;;;;;8.03;2.33;;;28.40;16.60;;;;;;10413408;28;20331;-70
2024/04/07 16:45:23;;;;;;;7.63;2.00;;;28.30;16.90;;;;;;10426297;28;20750;-72
2024/04/07 16:50:26;;;;;;;4.63;2.10;;;28.30;17.20;;;;;;10413550;28;20324;-72
2024/04/07 16:55:29;;;;;;;5.73;2.20;;;28.30;17.30;;;;;;10421404;28;20327;-72
2024/04/07 17:00:31;;;;;;;5.50;2.17;;;28.40;17.80;;;;;;10436600;28;20310;-73
2024/04/07 17:05:35;;;;;;;6.10;2.23;;;28.40;18.40;;;;;;10435837;28;20367;-72
2024/04/07 17:10:37;;;;;;;5.07;2.00;;;28.40;18.90;;;;;;10419726;28;20328;-72
2024/04/07 17:15:39;;;;;;;6.80;2.50;;;28.40;19.20;;;;;;10415758;28;20316;-73
2024/04/07 17:20:44;;;;;;;7.97;2.60;;;28.40;19.00;;;;;;10420628;28;20263;-72
2024/04/07 17:25:46;;;;;;;7.53;2.40;;;28.20;19.20;;;;;;10420684;28;20324;-73
2024/04/07 17:30:48;;;;;;;7.73;2.30;;;28.20;19.80;;;;;;10436847;28;20312;-75
2024/04/07 17:35:52;;;;;;;6.50;2.50;;;28.10;20.10;;;;;;10426361;28;20283;-74
2024/04/07 17:40:55;;;;;;;9.83;3.17;;;28.00;20.10;;;;;;10437488;28;21440;-74
2024/04/07 17:45:57;;;;;;;8.43;2.90;;;27.80;20.00;;;;;;10428799;28;20249;-74
2024/04/07 17:51:01;;;;;;;7.87;4.20;;;27.70;19.90;;;;;;10440790;28;20763;-74
2024/04/07 17:56:04;;;;;;;10.50;7.27;;;27.40;20.00;;;;;;10420426;28;20291;-73
2024/04/07 18:01:10;;;;;;;6.60;5.10;;;27.30;19.70;;;;;;10417791;28;20310;-74
2024/04/07 18:06:14;;;;;;;6.43;3.80;;;27.00;20.10;;;;;;10424740;28;20645;-74
2024/04/07 18:11:16;;;;;;;7.03;2.60;;;26.80;20.70;;;;;;10421618;28;20245;-74
2024/04/07 18:16:18;;;;;;;7.00;3.10;;;26.60;20.60;;;;;;10419030;28;20952;-73
2024/04/07 18:21:22;;;;;;;5.33;2.50;;;26.50;20.70;;;;;;10413215;28;20244;-73
2024/04/07 18:26:24;;;;;;;6.67;2.37;;;26.30;21.00;;;;;;10427417;28;20302;-74
2024/04/07 18:31:28;;;;;;;8.80;3.20;;;26.20;20.90;;;;;;10436990;28;20284;-73
2024/04/07 18:36:32;;;;;;;10.77;3.03;;;26.10;21.30;;;;;;10424670;28;20256;-74
2024/04/07 18:41:34;;;;;;;5.43;2.60;;;25.90;21.30;;;;;;10425326;28;20245;-74
2024/04/07 18:46:37;;;;;;;8.63;3.10;;;25.80;21.40;;;;;;10424745;28;20252;-74
2024/04/07 18:51:43;;;;;;;7.20;2.63;;;25.60;21.60;;;;;;10409340;28;20965;-73
2024/04/07 18:56:45;;;;;;;6.97;2.90;;;25.40;21.80;;;;;;10408153;28;20649;-73
2024/04/07 19:01:49;;;;;;;6.77;3.07;;;25.30;21.80;;;;;;10409051;28;20302;-73
2024/04/07 19:06:55;;;;;;;8.00;2.83;;;25.10;21.60;;;;;;10416581;28;20272;-73
2024/04/07 19:11:57;;;;;;;8.17;2.97;;;24.90;21.90;;;;;;10424108;28;20245;-72
2024/04/07 19:16:59;;;;;;;11.67;3.80;;;24.70;22.00;;;;;;10417377;28;20360;-72
2024/04/07 19:22:03;;;;;;;8.53;3.30;;;24.50;22.20;;;;;;10414611;28;20344;-72
2024/04/07 19:27:06;;;;;;;6.57;3.10;;;24.40;22.50;;;;;;10409173;28;20341;-72
2024/04/07 19:32:08;;;;;;;8.27;3.20;;;24.10;22.60;;;;;;10409136;28;20384;-72
2024/04/07 19:37:14;;;;;;;4.43;2.60;;;24.00;22.60;;;;;;10405288;28;20712;-72
2024/04/07 19:42:17;;;;;;;8.80;3.20;;;23.90;23.00;;;;;;10405943;28;20750;-72
2024/04/07 19:47:19;;;;;;;8.33;2.70;;;23.70;22.90;;;;;;10420273;28;20241;-72
2024/04/07 19:52:23;;;;;;;4.70;3.10;;;23.60;23.10;;;;;;10415183;28;20324;-72
2024/04/07 19:57:25;;;;;;;7.77;3.00;;;23.50;23.50;;;;;;10413951;28;20315;-72
2024/04/07 20:02:27;;;;;;;5.07;2.53;;;23.30;23.50;;;;;;10419243;28;20701;-72
2024/04/07 20:07:31;;;;;;;7.13;2.57;;;23.20;23.70;;;;;;10416120;28;20253;-72
2024/04/07 20:12:34;;;;;;;7.50;3.00;;;23.00;24.00;;;;;;10416209;28;20252;-72
2024/04/07 20:17:36;;;;;;;9.60;2.60;;;22.90;24.00;;;;;;10421795;28;20442;-72
2024/04/07 20:22:40;;;;;;;5.20;2.50;;;22.90;24.20;;;;;;10420455;28;20249;-73
2024/04/07 20:27:42;;;;;;;7.77;3.27;;;22.90;24.70;;;;;;10427871;28;20249;-72
2024/04/07 20:32:44;;;;;;;5.57;2.80;;;22.80;24.30;;;;;;10419456;28;20307;-72
2024/04/07 20:37:48;;;;;;;10.77;3.00;;;22.70;24.30;;;;;;10431488;28;20280;-72
2024/04/07 20:42:50;;;;;;;8.00;2.90;;;22.50;24.60;;;;;;10417560;28;20275;-72
2024/04/07 20:47:52;;;;;;;5.97;2.37;;;22.40;24.70;;;;;;10421680;28;20259;-72
2024/04/07 20:52:56;;;;;;;9.23;2.93;;;22.30;24.90;;;;;;10417617;28;20252;-72
2024/04/07 20:57:58;;;;;;;7.13;2.43;;;22.20;25.30;;;;;;10422418;28;20305;-72
2024/04/07 21:03:00;;;;;;;4.83;2.87;;;22.10;24.90;;;;;;10415638;28;20240;-72
2024/04/07 21:08:04;;;;;;;7.17;2.80;;;22.10;25.00;;;;;;10414235;28;20251;-72
2024/04/07 21:13:07;;;;;;;7.30;3.33;;;21.90;25.50;;;;;;10418839;28;20252;-72
2024/04/07 21:18:10;;;;;;;6.87;3.40;;;21.70;25.40;;;;;;10423664;28;20353;-72
2024/04/07 21:24:50;;;;;;;7.27;2.60;;;21.60;26.00;;;;;;11333957;25;20982;-72
2024/04/07 21:29:55;;;;;;;6.07;2.70;;;21.40;26.30;;;;;;11285186;26;20344;-72
2024/04/07 21:35:00;;;;;;;5.77;2.90;;;21.20;26.10;;;;;;11278662;26;20754;-72
2024/04/07 21:40:09;;;;;;;8.60;3.00;;;21.10;26.10;;;;;;11289165;26;20260;-72
2024/04/07 21:45:14;;;;;;;6.17;3.23;;;21.00;26.60;;;;;;11291608;26;20265;-72
2024/04/07 21:50:19;;;;;;;7.97;2.93;;;20.90;25.90;;;;;;11297040;25;20292;-71
2024/04/07 21:55:26;;;;;;;9.27;3.20;;;20.80;25.90;;;;;;11283091;26;20291;-71
2024/04/07 22:00:31;;;;;;;7.87;2.90;;;20.70;26.70;;;;;;11275316;25;20304;-72
2024/04/07 22:05:36;;;;;;;7.70;2.90;;;20.70;25.80;;;;;;11269017;25;20292;-72
2024/04/07 22:10:50;;;;;;;6.13;2.60;;;20.80;25.90;;;;;;11283530;25;20304;-72
2024/04/07 22:15:55;;;;;;;3.93;2.37;;;20.80;26.60;;;;;;11284555;25;20308;-72
2024/04/07 22:21:00;;;;;;;8.40;2.70;;;20.80;26.00;;;;;;11288981;26;20307;-72
2024/04/07 22:26:08;;;;;;;5.57;2.80;;;20.80;26.00;;;;;;11282663;25;20291;-72
2024/04/07 22:31:13;;;;;;;7.70;2.60;;;20.80;26.70;;;;;;11281581;26;20774;-71
2024/04/07 22:36:18;;;;;;;5.07;2.30;;;20.90;26.10;;;;;;11251727;26;20300;-71
2024/04/07 22:41:25;;;;;;;5.77;2.47;;;20.90;26.20;;;;;;11252827;26;20311;-72
2024/04/07 22:46:32;;;;;;;6.40;2.70;;;20.90;26.90;;;;;;11252537;26;20273;-72
2024/04/07 22:51:37;;;;;;;5.73;2.30;;;20.90;26.30;;;;;;11249196;26;20261;-72
2024/04/07 22:56:45;;;;;;;3.93;2.47;;;20.90;26.50;;;;;;11234506;26;20253;-72
2024/04/07 23:01:51;;;;;;;3.47;2.20;;;20.80;27.10;;;;;;11270046;26;20336;-72
2024/04/07 23:06:56;;;;;;;9.37;2.30;;;20.80;26.70;;;;;;11239794;26;20306;-72
2024/04/07 23:12:04;;;;;;;6.43;2.07;;;20.70;26.60;;;;;;11239839;26;20818;-71
2024/04/07 23:17:09;;;;;;;3.77;2.37;;;20.70;27.00;;;;;;11250085;26;20269;-72
2024/04/07 23:22:14;;;;;;;5.03;2.17;;;20.60;26.60;;;;;;11251875;26;20736;-72
2024/04/07 23:27:22;;;;;;;5.70;2.07;;;20.60;26.40;;;;;;11236178;26;20300;-71
2024/04/07 23:32:27;;;;;;;5.20;2.03;;;20.60;26.80;;;;;;11259003;26;20315;-71
2024/04/07 23:37:32;;;;;;;4.93;2.10;;;20.50;26.40;;;;;;11244142;26;20258;-71
2024/04/07 23:42:40;;;;;;;4.03;1.90;;;20.50;26.50;;;;;;11243491;26;20932;-71
2024/04/07 23:47:44;;;;;;;2.63;1.83;;;20.50;26.70;;;;;;11257611;26;20288;-72
2024/04/07 23:52:49;;;;;;;4.10;1.97;;;20.50;26.90;;;;;;11248073;26;20676;-72
2024/04/07 23:57:57;;;;;;;3.27;1.90;;;20.60;26.30;;;;;;11246156;26;20308;-71
